createdAt,value
2022-12-29T00:02:37.572Z,99950.84
2022-12-29T00:05:24.532Z,99965.22
2022-12-29T00:08:09.919Z,99956.50
2022-12-29T00:10:55.518Z,99970.13
2022-12-29T00:14:20.258Z,99967.88
2022-12-29T00:17:08.327Z,99953.72
2022-12-29T00:20:12.839Z,99952.66
2022-12-29T00:23:17.850Z,99955.25
2022-12-29T00:26:23.290Z,99952.41
2022-12-29T00:29:28.397Z,99959.34
2022-12-29T00:32:32.290Z,99947.28
2022-12-29T00:35:25.372Z,99931.38
2022-12-29T00:38:31.453Z,99938.19
2022-12-29T00:41:35.406Z,99924.84
2022-12-29T00:44:21.041Z,99918.13
2022-12-29T00:47:06.473Z,99896.25
2022-12-29T00:49:51.946Z,99912.56
2022-12-29T00:52:37.233Z,99912.47
2022-12-29T00:55:22.959Z,99921.84
2022-12-29T00:58:08.709Z,99917.13
2022-12-29T01:01:02.365Z,99919.41
2022-12-29T01:03:47.854Z,99903.56
2022-12-29T01:06:33.987Z,99902.47
2022-12-29T01:09:38.464Z,99911.00
2022-12-29T01:12:41.367Z,99898.69
2022-12-29T01:15:26.861Z,99904.59
2022-12-29T01:18:12.553Z,99896.34
2022-12-29T01:21:02.596Z,99902.47
2022-12-29T01:23:48.222Z,99885.78
2022-12-29T01:26:33.972Z,99900.91
2022-12-29T01:29:19.299Z,99894.81
2022-12-29T01:32:05.211Z,99882.00
2022-12-29T01:34:50.862Z,99893.63
2022-12-29T01:37:36.318Z,99886.22
2022-12-29T01:40:21.655Z,99873.16
2022-12-29T01:43:12.024Z,99863.88
2022-12-29T01:45:57.686Z,99861.25
2022-12-29T01:48:44.458Z,99872.91
2022-12-29T01:51:32.608Z,99795.31
2022-12-29T01:54:35.536Z,99838.97
2022-12-29T01:57:25.919Z,99838.63
2022-12-29T02:00:14.685Z,99822.72
2022-12-29T02:03:00.347Z,99836.63
2022-12-29T02:05:54.944Z,99835.22
2022-12-29T02:08:41.542Z,99828.13
2022-12-29T02:11:29.450Z,99850.78
2022-12-29T02:14:15.259Z,99829.56
2022-12-29T02:17:33.209Z,99829.22
2022-12-29T02:20:52.994Z,99833.69
2022-12-29T02:24:02.709Z,99830.38
2022-12-29T02:27:05.846Z,99837.81
2022-12-29T02:30:26.923Z,99816.38
2022-12-29T02:33:31.074Z,99831.63
2022-12-29T02:36:23.534Z,99830.63
2022-12-29T02:39:41.570Z,99815.03
2022-12-29T02:42:36.174Z,99816.44
2022-12-29T02:45:31.133Z,99813.84
2022-12-29T02:48:33.677Z,99817.97
2022-12-29T02:51:29.652Z,99818.63
2022-12-29T02:54:37.496Z,99795.69
2022-12-29T02:57:23.067Z,99819.38
2022-12-29T03:00:13.423Z,99800.41
2022-12-29T03:03:23.998Z,99784.81
2022-12-29T03:06:31.351Z,99799.19
2022-12-29T03:09:44.649Z,99792.78
2022-12-29T03:13:11.861Z,99786.22
2022-12-29T03:16:28.763Z,99781.75
2022-12-29T03:19:24.319Z,99777.81
2022-12-29T03:22:28.697Z,99772.03
2022-12-29T03:25:26.336Z,99771.03
2022-12-29T03:28:17.235Z,99767.00
2022-12-29T03:31:05.390Z,99775.50
2022-12-29T03:33:52.300Z,99762.44
2022-12-29T03:36:45.497Z,99771.88
2022-12-29T03:39:32.173Z,99765.72
2022-12-29T03:42:22.420Z,99762.00
2022-12-29T03:45:10.108Z,99756.56
2022-12-29T03:47:55.978Z,99732.06
2022-12-29T03:50:41.874Z,99735.44
2022-12-29T03:53:27.435Z,99727.50
2022-12-29T03:56:13.062Z,99731.25
2022-12-29T03:58:58.168Z,99733.28
2022-12-29T04:01:43.757Z,99740.97
2022-12-29T04:04:29.431Z,99733.41
2022-12-29T04:07:14.702Z,99702.63
2022-12-29T04:10:00.244Z,99727.25
2022-12-29T04:12:47.456Z,99722.94
2022-12-29T04:15:33.151Z,99737.25
2022-12-29T04:18:18.734Z,99711.34
2022-12-29T04:21:05.363Z,99729.56
2022-12-29T04:23:50.979Z,99712.56
2022-12-29T04:26:36.271Z,99729.47
2022-12-29T04:29:22.085Z,99738.88
2022-12-29T04:32:07.244Z,99725.34
2022-12-29T04:34:52.902Z,99714.47
2022-12-29T04:37:38.324Z,99721.47
2022-12-29T04:40:24.269Z,99722.06
2022-12-29T04:43:10.844Z,99699.25
2022-12-29T04:45:56.297Z,99693.66
2022-12-29T04:48:42.195Z,99697.75
2022-12-29T04:51:27.527Z,99687.94
2022-12-29T04:54:12.835Z,99697.28
2022-12-29T04:56:58.426Z,99685.97
2022-12-29T04:59:43.677Z,99693.81
2022-12-29T05:02:29.519Z,99688.13
2022-12-29T05:05:15.177Z,99682.16
2022-12-29T05:08:00.513Z,99696.91
2022-12-29T05:10:46.685Z,99662.63
2022-12-29T05:13:32.226Z,99677.97
2022-12-29T05:16:17.751Z,99678.03
2022-12-29T05:19:04.456Z,99673.38
2022-12-29T05:21:49.852Z,99678.41
2022-12-29T05:24:35.435Z,99687.84
2022-12-29T05:27:21.109Z,99668.44
2022-12-29T05:30:07.361Z,99677.69
2022-12-29T05:32:53.292Z,99675.53
2022-12-29T05:35:38.517Z,99652.91
2022-12-29T05:38:24.412Z,99653.00
2022-12-29T05:41:10.448Z,99659.56
2022-12-29T05:43:55.984Z,99654.59
2022-12-29T05:46:41.735Z,99672.44
2022-12-29T05:49:27.007Z,99653.97
2022-12-29T05:52:12.768Z,99652.34
2022-12-29T05:54:58.122Z,99665.06
2022-12-29T05:57:43.698Z,99663.94
2022-12-29T06:00:29.243Z,99650.09
2022-12-29T06:03:14.887Z,99637.50
2022-12-29T06:06:00.454Z,99658.75
2022-12-29T06:08:45.920Z,99649.72
2022-12-29T06:11:31.467Z,99651.28
2022-12-29T06:14:17.068Z,99653.34
2022-12-29T06:17:02.718Z,99660.84
2022-12-29T06:19:48.337Z,99655.22
2022-12-29T06:22:33.672Z,99652.97
2022-12-29T06:25:19.279Z,99634.06
2022-12-29T06:28:06.245Z,99632.78
2022-12-29T06:30:51.616Z,99641.84
2022-12-29T06:33:38.386Z,99622.94
2022-12-29T06:36:24.083Z,99644.84
2022-12-29T06:39:10.910Z,99653.34
2022-12-29T06:41:56.286Z,99619.59
2022-12-29T06:44:41.665Z,99637.63
2022-12-29T06:47:27.709Z,99647.72
2022-12-29T06:50:13.373Z,99637.97
2022-12-29T06:52:58.772Z,99643.19
2022-12-29T06:55:44.388Z,99584.50
2022-12-29T06:58:30.048Z,99627.97
2022-12-29T07:01:15.851Z,99631.25
2022-12-29T07:04:01.521Z,99632.81
2022-12-29T07:06:46.803Z,99613.84
2022-12-29T07:09:32.559Z,99642.63
2022-12-29T07:12:17.958Z,99641.81
2022-12-29T07:15:03.638Z,99655.75
2022-12-29T07:17:50.487Z,99628.97
2022-12-29T07:20:36.030Z,99645.69
2022-12-29T07:23:21.645Z,99654.66
2022-12-29T07:26:10.490Z,99663.94
2022-12-29T07:28:56.101Z,99678.13
2022-12-29T07:31:41.684Z,99665.81
2022-12-29T07:34:27.210Z,99670.53
2022-12-29T07:37:12.916Z,99671.84
2022-12-29T07:39:58.290Z,99706.84
2022-12-29T07:42:43.764Z,99687.78
2022-12-29T07:45:29.869Z,99696.19
2022-12-29T07:48:15.378Z,99689.75
2022-12-29T07:51:01.054Z,99716.41
2022-12-29T07:53:46.414Z,99738.38
2022-12-29T07:56:31.892Z,99758.44
2022-12-29T07:59:18.093Z,99744.13
2022-12-29T08:02:03.735Z,99754.91
2022-12-29T08:04:49.408Z,99749.56
2022-12-29T08:07:34.735Z,99743.00
2022-12-29T08:10:20.294Z,99724.63
2022-12-29T08:13:05.896Z,99725.25
2022-12-29T08:15:51.635Z,99737.50
2022-12-29T08:18:37.098Z,99726.75
2022-12-29T08:21:22.742Z,99746.84
2022-12-29T08:24:09.248Z,99762.75
2022-12-29T08:26:55.140Z,99754.50
2022-12-29T08:29:40.889Z,99732.88
2022-12-29T08:32:27.452Z,99748.31
2022-12-29T08:35:13.727Z,99733.13
2022-12-29T08:37:59.272Z,99719.28
2022-12-29T08:40:44.985Z,99721.44
2022-12-29T08:43:31.511Z,99740.72
2022-12-29T08:46:17.882Z,99748.09
2022-12-29T08:49:03.527Z,99751.53
2022-12-29T08:51:48.867Z,99751.75
2022-12-29T08:54:34.199Z,99747.44
2022-12-29T08:57:19.637Z,99742.97
2022-12-29T09:00:05.717Z,99738.09
2022-12-29T09:02:51.390Z,99729.72
2022-12-29T09:05:36.938Z,99705.91
2022-12-29T09:08:26.158Z,99739.72
2022-12-29T09:11:18.977Z,99744.06
2022-12-29T09:14:05.064Z,99740.22
2022-12-29T09:17:11.557Z,99744.34
2022-12-29T09:19:57.442Z,99751.91
2022-12-29T09:22:43.694Z,99751.94
2022-12-29T09:25:29.431Z,99739.16
2022-12-29T09:28:14.926Z,99747.16
2022-12-29T09:31:01.364Z,99767.38
2022-12-29T09:33:47.532Z,99751.31
2022-12-29T09:36:32.693Z,99764.53
2022-12-29T09:39:18.343Z,99772.25
2022-12-29T09:42:47.433Z,99775.84
2022-12-29T09:45:46.476Z,99783.41
2022-12-29T09:48:38.320Z,99782.66
2022-12-29T09:51:26.251Z,99775.19
2022-12-29T09:54:30.963Z,99789.38
2022-12-29T09:57:22.404Z,99774.69
2022-12-29T10:00:21.600Z,99773.34
2022-12-29T10:03:16.982Z,99773.47
2022-12-29T10:06:14.717Z,99766.16
2022-12-29T10:09:47.104Z,99773.84
2022-12-29T10:12:40.885Z,99769.56
2022-12-29T10:15:49.832Z,99774.50
2022-12-29T10:18:56.020Z,99760.84
2022-12-29T10:22:03.830Z,99756.91
2022-12-29T10:24:52.049Z,99767.44
2022-12-29T10:27:38.169Z,99757.47
2022-12-29T10:30:24.489Z,99752.88
2022-12-29T10:33:19.236Z,99788.63
2022-12-29T10:36:22.400Z,99782.63
2022-12-29T10:39:19.780Z,99778.88
2022-12-29T10:42:10.321Z,99771.53
2022-12-29T10:44:58.225Z,99769.91
2022-12-29T10:47:54.496Z,99773.47
2022-12-29T10:50:43.755Z,99775.13
2022-12-29T10:53:46.141Z,99751.50
2022-12-29T10:56:36.359Z,99756.47
2022-12-29T10:59:24.663Z,99769.34
2022-12-29T11:02:10.398Z,99762.56
2022-12-29T11:05:09.829Z,99768.16
2022-12-29T11:08:01.097Z,99785.03
2022-12-29T11:10:47.158Z,99755.63
2022-12-29T11:13:39.207Z,99772.41
2022-12-29T11:16:31.729Z,99765.72
2022-12-29T11:19:26.037Z,99776.69
2022-12-29T11:22:22.617Z,99752.59
2022-12-29T11:25:13.771Z,99757.19
2022-12-29T11:28:14.964Z,99746.72
2022-12-29T11:31:02.506Z,99760.69
2022-12-29T11:33:47.996Z,99738.75
2022-12-29T11:36:36.256Z,99747.81
2022-12-29T11:39:30.552Z,99737.50
2022-12-29T11:42:18.569Z,99741.28
2022-12-29T11:45:25.464Z,99734.13
2022-12-29T11:48:19.466Z,99745.84
2022-12-29T11:51:05.325Z,99740.13
2022-12-29T11:53:54.168Z,99747.56
2022-12-29T11:56:44.565Z,99742.81
2022-12-29T11:59:35.209Z,99742.09
2022-12-29T12:02:38.827Z,99745.16
2022-12-29T12:05:45.837Z,99736.00
2022-12-29T12:08:39.492Z,99749.53
2022-12-29T12:11:37.345Z,99754.97
2022-12-29T12:14:26.476Z,99766.16
2022-12-29T12:17:25.787Z,99761.75
2022-12-29T12:20:39.433Z,99753.78
2022-12-29T12:23:37.827Z,99752.63
2022-12-29T12:26:33.378Z,99752.03
2022-12-29T12:29:43.951Z,99762.63
2022-12-29T12:32:47.265Z,99758.34
2022-12-29T12:35:50.217Z,99757.78
2022-12-29T12:38:50.743Z,99757.69
2022-12-29T12:41:58.372Z,99768.53
2022-12-29T12:44:59.957Z,99760.22
2022-12-29T12:47:54.088Z,99786.47
2022-12-29T12:50:59.150Z,99787.88
2022-12-29T12:54:24.127Z,99772.00
2022-12-29T12:57:35.521Z,99782.16
2022-12-29T13:00:24.155Z,99794.34
2022-12-29T13:03:18.364Z,99785.72
2022-12-29T13:06:25.243Z,99786.84
2022-12-29T13:09:23.659Z,99773.00
2022-12-29T13:12:23.034Z,99787.25
2022-12-29T13:15:42.160Z,99783.97
2022-12-29T13:18:45.196Z,99781.88
2022-12-29T13:22:06.008Z,99800.09
2022-12-29T13:25:42.700Z,99810.06
2022-12-29T13:28:46.750Z,99807.69
2022-12-29T13:31:45.553Z,99799.91
2022-12-29T13:34:54.352Z,99793.28
2022-12-29T13:37:51.937Z,99809.78
2022-12-29T13:40:44.136Z,99813.66
2022-12-29T13:43:32.569Z,99800.31
2022-12-29T13:46:36.539Z,99809.66
2022-12-29T13:49:25.400Z,99819.16
2022-12-29T13:52:22.242Z,99797.69
2022-12-29T13:55:21.025Z,99802.84
2022-12-29T13:58:35.868Z,99830.47
2022-12-29T14:01:35.278Z,99821.97
2022-12-29T14:04:29.638Z,99820.50
2022-12-29T14:07:18.427Z,99831.31
2022-12-29T14:10:04.273Z,99844.66
2022-12-29T14:12:50.784Z,99852.03
2022-12-29T14:15:42.080Z,99826.34
2022-12-29T14:18:31.754Z,99825.84
2022-12-29T14:21:17.518Z,99849.91
2022-12-29T14:24:41.063Z,99844.66
2022-12-29T14:27:29.107Z,99882.88
2022-12-29T14:30:50.670Z,99855.25
2022-12-29T14:33:36.399Z,99855.56
2022-12-29T14:36:27.654Z,99862.78
2022-12-29T14:39:33.981Z,99893.50
2022-12-29T14:42:23.584Z,99892.53
2022-12-29T14:45:29.581Z,99888.59
2022-12-29T14:48:33.914Z,99909.78
2022-12-29T14:51:30.259Z,99891.22
2022-12-29T14:54:33.893Z,99901.63
2022-12-29T14:57:38.819Z,99911.13
2022-12-29T15:00:28.247Z,99912.75
2022-12-29T15:03:17.831Z,99923.19
2022-12-29T15:06:12.236Z,99923.38
2022-12-29T15:09:30.542Z,99914.66
2022-12-29T15:12:34.112Z,99941.06
2022-12-29T15:15:28.001Z,99939.41
2022-12-29T15:18:34.685Z,99945.88
2022-12-29T15:21:26.769Z,99946.63
2022-12-29T15:24:12.188Z,99961.13
2022-12-29T15:26:57.468Z,99961.34
2022-12-29T15:29:47.449Z,99939.78
2022-12-29T15:32:45.186Z,99964.69
2022-12-29T15:35:35.581Z,99971.50
2022-12-29T15:38:33.434Z,99976.59
2022-12-29T15:42:00.444Z,99960.38
2022-12-29T15:44:46.724Z,100007.41
2022-12-29T15:47:33.271Z,99967.50
2022-12-29T15:50:29.268Z,99997.75
2022-12-29T15:53:29.157Z,100012.16
2022-12-29T15:56:15.128Z,100013.50
2022-12-29T15:59:01.500Z,100016.06
2022-12-29T16:01:47.521Z,100011.50
2022-12-29T16:04:43.229Z,100015.63
2022-12-29T16:07:41.977Z,100019.78
2022-12-29T16:10:39.720Z,100006.28
2022-12-29T16:13:29.650Z,100012.97
2022-12-29T16:16:20.118Z,100032.31
2022-12-29T16:19:14.787Z,100023.78
2022-12-29T16:22:01.806Z,100028.31
2022-12-29T16:24:47.489Z,100021.06
2022-12-29T16:27:41.845Z,100044.44
2022-12-29T16:30:33.882Z,100016.84
2022-12-29T16:33:47.597Z,100056.78
2022-12-29T16:36:34.418Z,100061.94
2022-12-29T16:39:24.725Z,100057.63
2022-12-29T16:42:50.619Z,100069.84
2022-12-29T16:45:46.514Z,100071.47
2022-12-29T16:48:46.385Z,100065.31
2022-12-29T16:51:35.869Z,100078.41
2022-12-29T16:54:25.286Z,100082.97
2022-12-29T16:57:12.016Z,100080.75
2022-12-29T17:00:02.074Z,100071.22
2022-12-29T17:02:50.360Z,100066.56
2022-12-29T17:05:35.804Z,100071.63
2022-12-29T17:08:23.786Z,100079.31
2022-12-29T17:11:51.346Z,100082.69
2022-12-29T17:14:53.613Z,100059.91
2022-12-29T17:17:40.684Z,100082.47
2022-12-29T17:20:29.515Z,100084.38
2022-12-29T17:23:21.132Z,100076.94
2022-12-29T17:26:11.091Z,100081.84
2022-12-29T17:28:56.314Z,100086.22
2022-12-29T17:31:41.737Z,100090.13
2022-12-29T17:34:27.473Z,100106.94
2022-12-29T17:37:24.653Z,100102.47
2022-12-29T17:40:18.885Z,100102.69
2022-12-29T17:43:04.648Z,100110.63
2022-12-29T17:45:55.133Z,100102.56
2022-12-29T17:48:40.686Z,100095.13
2022-12-29T17:51:26.244Z,100108.56
2022-12-29T17:54:21.147Z,100112.78
2022-12-29T17:57:06.531Z,100112.16
2022-12-29T17:59:52.282Z,100107.69
2022-12-29T18:02:38.188Z,100105.75
2022-12-29T18:05:26.521Z,100103.88
2022-12-29T18:08:12.598Z,100106.84
2022-12-29T18:10:58.845Z,100106.41
2022-12-29T18:13:47.084Z,100083.03
2022-12-29T18:16:32.795Z,100104.41
2022-12-29T18:19:18.193Z,100102.13
2022-12-29T18:22:03.669Z,100106.34
2022-12-29T18:24:49.624Z,100091.22
2022-12-29T18:27:35.081Z,100109.13
2022-12-29T18:30:20.624Z,100106.34
2022-12-29T18:33:06.414Z,100095.16
2022-12-29T18:35:57.025Z,100111.06
2022-12-29T18:38:43.361Z,100119.44
2022-12-29T18:41:32.339Z,100129.28
2022-12-29T18:44:17.931Z,100125.75
2022-12-29T18:47:03.686Z,100124.06
2022-12-29T18:49:49.071Z,100103.34
2022-12-29T18:52:34.420Z,100123.28
2022-12-29T18:55:22.951Z,100118.16
2022-12-29T18:58:08.518Z,100119.22
2022-12-29T19:00:54.557Z,100122.44
2022-12-29T19:03:40.174Z,100127.94
2022-12-29T19:06:25.618Z,100093.47
2022-12-29T19:09:11.010Z,100108.00
2022-12-29T19:11:56.418Z,100105.16
2022-12-29T19:14:41.821Z,100115.72
2022-12-29T19:17:27.616Z,100121.53
2022-12-29T19:20:34.269Z,100103.97
2022-12-29T19:23:22.449Z,100113.16
2022-12-29T19:26:27.139Z,100107.81
2022-12-29T19:29:15.611Z,100105.28
2022-12-29T19:32:01.371Z,100121.63
2022-12-29T19:34:48.704Z,100090.50
2022-12-29T19:37:36.304Z,100099.50
2022-12-29T19:40:25.530Z,100134.59
2022-12-29T19:43:12.242Z,100127.25
2022-12-29T19:45:57.714Z,100133.94
2022-12-29T19:48:43.293Z,100121.72
2022-12-29T19:51:28.669Z,100128.53
2022-12-29T19:54:14.281Z,100127.59
2022-12-29T19:56:59.965Z,100132.09
2022-12-29T19:59:45.536Z,100138.63
2022-12-29T20:02:34.863Z,100143.09
2022-12-29T20:05:20.475Z,100128.41
2022-12-29T20:08:06.301Z,100132.53
2022-12-29T20:11:02.343Z,100137.34
2022-12-29T20:13:48.391Z,100140.91
2022-12-29T20:16:38.374Z,100134.72
2022-12-29T20:19:30.459Z,100148.38
2022-12-29T20:22:16.128Z,100146.94
2022-12-29T20:25:34.454Z,100141.56
2022-12-29T20:28:06.708Z,100151.63
2022-12-29T20:31:03.821Z,100149.47
2022-12-29T20:33:49.365Z,100147.47
2022-12-29T20:36:36.985Z,100146.72
2022-12-29T20:39:22.647Z,100162.22
2022-12-29T20:42:08.185Z,100149.38
2022-12-29T20:44:53.524Z,100165.00
2022-12-29T20:47:38.914Z,100162.31
2022-12-29T20:50:24.195Z,100151.69
2022-12-29T20:53:10.684Z,100163.00
2022-12-29T20:56:01.330Z,100168.31
2022-12-29T20:59:25.405Z,100156.72
2022-12-29T21:01:53.431Z,100117.88
2022-12-29T21:05:21.690Z,100159.94
2022-12-29T21:07:44.972Z,100162.31
2022-12-29T21:10:30.883Z,100172.06
2022-12-29T21:13:17.440Z,100179.84
2022-12-29T21:16:06.049Z,100175.59
2022-12-29T21:18:51.599Z,100199.56
2022-12-29T21:21:37.415Z,100176.75
2022-12-29T21:24:22.865Z,100194.13
2022-12-29T21:27:08.423Z,100166.88
2022-12-29T21:29:54.134Z,100191.16
2022-12-29T21:32:41.396Z,100204.56
2022-12-29T21:35:26.911Z,100197.47
2022-12-29T21:38:12.978Z,100199.09
2022-12-29T21:41:10.185Z,100201.22
2022-12-29T21:44:14.185Z,100193.09
2022-12-29T21:46:59.917Z,100183.13
2022-12-29T21:49:45.288Z,100209.63
2022-12-29T21:52:30.849Z,100185.41
2022-12-29T21:55:16.093Z,100195.91
2022-12-29T21:58:20.251Z,100208.34
2022-12-29T22:01:24.354Z,100218.56
2022-12-29T22:04:32.853Z,100212.06
2022-12-29T22:07:36.852Z,100232.06
2022-12-29T22:10:40.955Z,100217.63
2022-12-29T22:13:26.591Z,100227.09
2022-12-29T22:16:12.574Z,100253.34
2022-12-29T22:18:58.235Z,100241.72
2022-12-29T22:21:43.884Z,100251.81
2022-12-29T22:24:29.158Z,100260.22
2022-12-29T22:27:14.424Z,100244.25
2022-12-29T22:30:00.100Z,100259.78
2022-12-29T22:32:45.715Z,100254.06
2022-12-29T22:35:31.158Z,100261.19
2022-12-29T22:38:16.584Z,100271.50
2022-12-29T22:41:02.012Z,100269.69
2022-12-29T22:43:47.666Z,100269.91
2022-12-29T22:46:33.215Z,100278.22
2022-12-29T22:49:18.632Z,100289.97
2022-12-29T22:52:04.865Z,100295.63
2022-12-29T22:54:50.256Z,100284.69
2022-12-29T22:57:36.396Z,100306.00
2022-12-29T23:00:22.382Z,100295.91
2022-12-29T23:03:08.250Z,100286.75
2022-12-29T23:05:58.627Z,100297.13
2022-12-29T23:08:44.481Z,100308.03
2022-12-29T23:11:30.343Z,100305.38
2022-12-29T23:14:17.280Z,100322.25
2022-12-29T23:17:02.730Z,100318.34
2022-12-29T23:19:48.466Z,100326.72
2022-12-29T23:22:34.040Z,100323.00
2022-12-29T23:25:19.463Z,100311.56
2022-12-29T23:28:07.957Z,100336.81
2022-12-29T23:30:53.380Z,100340.50
2022-12-29T23:33:38.712Z,100330.47
2022-12-29T23:36:24.688Z,100327.44
2022-12-29T23:39:17.919Z,100314.03
2022-12-29T23:42:03.447Z,100320.03
2022-12-29T23:44:48.836Z,100330.78
2022-12-29T23:47:34.424Z,100322.88
2022-12-29T23:50:19.904Z,100345.41
2022-12-29T23:53:05.353Z,100341.34
2022-12-29T23:55:54.682Z,100347.34
2022-12-29T23:58:40.168Z,100338.09
